Time;durP1;ratioP1;P1;durP2;ratioP2;P2;SDS_P1;SDS_P2;PMS_P1;PMS_P2;Temp;Humidity;BMP_temperature;BMP_pressure;BME280_temperature;BME280_humidity;BME280_pressure;Samples;Min_cycle;Max_cycle;Signal;HPM_P1;HPM_P2
2022/01/17 00:00:10;;;;;;;66.78;32.40;;;;;;;-0.32;100.00;101725.75;4898257;29;20067;-69
2022/01/17 00:02:39;;;;;;;66.35;32.53;;;;;;;-0.44;100.00;101735.25;4898349;29;20067;-69
2022/01/17 00:05:09;;;;;;;63.90;32.75;;;;;;;-0.45;100.00;101749.69;4898002;29;20049;-68
2022/01/17 00:07:37;;;;;;;65.90;32.13;;;;;;;-0.52;100.00;101752.25;4898046;29;20053;-69
2022/01/17 00:10:07;;;;;;;68.18;33.63;;;;;;;-0.51;100.00;101753.09;4896780;29;20075;-68
2022/01/17 00:12:38;;;;;;;71.95;32.45;;;;;;;-0.37;100.00;101752.34;4897722;29;20048;-69
2022/01/17 00:15:14;;;;;;;65.30;32.85;;;;;;;-0.46;100.00;101748.00;4898508;29;20055;-68
2022/01/17 00:17:44;;;;;;;58.80;30.95;;;;;;;-0.43;100.00;101750.38;4898205;29;20053;-68
2022/01/17 00:20:17;;;;;;;66.40;33.05;;;;;;;-0.49;100.00;101767.22;4896425;29;20047;-68
2022/01/17 00:22:47;;;;;;;60.78;31.38;;;;;;;-0.60;100.00;101769.28;4897850;29;20412;-68
2022/01/17 00:25:15;;;;;;;66.95;32.15;;;;;;;-0.61;100.00;101767.59;4897384;29;20506;-68
2022/01/17 00:27:43;;;;;;;59.55;30.65;;;;;;;-0.57;100.00;101766.25;4898050;29;20052;-68
2022/01/17 00:30:11;;;;;;;61.45;30.30;;;;;;;-0.57;100.00;101776.16;4897957;29;20060;-68
2022/01/17 00:32:38;;;;;;;74.00;32.35;;;;;;;-0.56;100.00;101767.91;4895524;29;20064;-68
2022/01/17 00:35:07;;;;;;;65.05;31.40;;;;;;;-0.49;100.00;101769.91;4895852;29;20053;-68
2022/01/17 00:37:35;;;;;;;69.88;31.63;;;;;;;-0.42;100.00;101758.25;4897609;29;20388;-68
2022/01/17 00:40:03;;;;;;;70.70;31.40;;;;;;;-0.33;100.00;101756.38;4897160;29;20087;-69
2022/01/17 00:42:31;;;;;;;64.63;30.13;;;;;;;-0.28;100.00;101767.41;4897193;29;20055;-68
2022/01/17 00:45:06;;;;;;;75.25;32.05;;;;;;;-0.38;100.00;101764.13;4897433;29;20045;-68
2022/01/17 00:47:34;;;;;;;66.35;31.38;;;;;;;-0.37;100.00;101760.41;4898060;29;20411;-68
2022/01/17 00:50:02;;;;;;;66.40;29.55;;;;;;;-0.29;100.00;101768.41;4897413;29;20049;-68
2022/01/17 00:52:30;;;;;;;61.25;32.00;;;;;;;-0.24;100.00;101770.59;4897772;29;20064;-68
2022/01/17 00:54:58;;;;;;;61.10;29.88;;;;;;;-0.31;100.00;101764.22;4897621;29;20424;-68
2022/01/17 00:57:26;;;;;;;68.88;32.88;;;;;;;-0.47;100.00;101763.34;4897427;29;20044;-68
2022/01/17 00:59:54;;;;;;;60.22;28.67;;;;;;;-0.59;100.00;101754.81;4896711;29;20057;-68
2022/01/17 01:02:22;;;;;;;67.53;30.98;;;;;;;-0.64;100.00;101754.50;4897375;29;20492;-68
2022/01/17 01:04:51;;;;;;;62.67;29.73;;;;;;;-0.64;100.00;101765.25;4896730;29;20488;-68
2022/01/17 01:07:18;;;;;;;64.88;29.58;;;;;;;-0.60;100.00;101769.28;4897258;29;20410;-68
2022/01/17 01:09:59;;;;;;;67.95;31.02;;;;;;;-0.70;100.00;101766.81;4897320;29;20084;-68
2022/01/17 01:12:27;;;;;;;60.30;29.98;;;;;;;-0.48;100.00;101779.63;4896615;29;20053;-68
2022/01/17 01:14:56;;;;;;;58.70;29.17;;;;;;;-0.45;100.00;101768.50;4897129;29;20045;-68
2022/01/17 01:17:33;;;;;;;56.22;28.90;;;;;;;-0.61;100.00;101770.28;4886801;29;20056;-68
2022/01/17 01:28:24;;;;;;;58.60;30.38;;;;;;;-0.45;100.00;101796.25;4896930;29;20044;-68
2022/01/17 01:30:53;;;;;;;64.72;28.98;;;;;;;-0.60;100.00;101789.94;4897137;29;20045;-68
2022/01/17 01:33:37;;;;;;;62.55;29.52;;;;;;;-0.74;100.00;101794.22;4897040;29;20060;-68
2022/01/17 01:36:12;;;;;;;57.67;29.02;;;;;;;-0.83;100.00;101793.41;4886285;29;20049;-68
2022/01/17 01:38:41;;;;;;;62.22;27.80;;;;;;;-0.95;100.00;101777.66;4895563;29;20056;-68
2022/01/17 01:41:09;;;;;;;54.63;27.00;;;;;;;-0.92;100.00;101784.53;4896572;29;20057;-68
2022/01/17 01:43:37;;;;;;;57.72;29.02;;;;;;;-0.90;100.00;101787.88;4896699;29;20052;-69
2022/01/17 01:46:06;;;;;;;63.45;30.02;;;;;;;-0.78;100.00;101784.81;4897202;29;20052;-68
2022/01/17 01:48:35;;;;;;;62.22;29.13;;;;;;;-0.76;100.00;101796.22;4896650;29;20416;-68
2022/01/17 01:51:03;;;;;;;60.97;29.33;;;;;;;-0.61;100.00;101802.56;4896741;29;20055;-68
2022/01/17 01:53:31;;;;;;;58.05;29.95;;;;;;;-0.54;100.00;101805.38;4896792;29;20420;-68
2022/01/17 01:55:59;;;;;;;57.08;27.73;;;;;;;-0.68;100.00;101790.84;4896748;29;20051;-69
2022/01/17 01:58:27;;;;;;;57.33;27.90;;;;;;;-0.76;100.00;101780.09;4896508;29;20058;-68
2022/01/17 02:00:56;;;;;;;55.15;27.70;;;;;;;-0.65;100.00;101795.84;4896518;29;20064;-68
2022/01/17 02:03:24;;;;;;;57.38;26.65;;;;;;;-0.44;100.00;101821.31;4897072;29;20044;-68
2022/01/17 02:05:52;;;;;;;55.65;26.92;;;;;;;-0.50;100.00;101816.63;4896742;29;20060;-68
2022/01/17 02:08:20;;;;;;;55.92;26.60;;;;;;;-0.57;100.00;101813.78;4896551;29;20048;-68
2022/01/17 02:10:47;;;;;;;61.38;28.05;;;;;;;-0.61;100.00;101796.31;4896958;29;20418;-68
2022/01/17 02:13:15;;;;;;;56.78;26.30;;;;;;;-0.84;100.00;101803.31;4896181;29;20052;-68
2022/01/17 02:15:46;;;;;;;55.88;26.45;;;;;;;-0.86;100.00;101796.44;4896654;29;20057;-68
2022/01/17 02:18:22;;;;;;;46.30;24.20;;;;;;;-0.92;100.00;101789.91;4896391;29;20061;-68
2022/01/17 02:23:37;;;;;;;51.65;24.70;;;;;;;-0.73;100.00;101804.78;4896617;29;20071;-68
2022/01/17 02:26:05;;;;;;;52.22;24.95;;;;;;;-0.81;100.00;101810.19;4896535;29;20056;-68
2022/01/17 02:28:33;;;;;;;44.83;22.95;;;;;;;-0.98;100.00;101806.72;4896367;29;20036;-68
2022/01/17 02:31:05;;;;;;;50.67;25.27;;;;;;;-1.11;100.00;101799.19;4896148;29;20057;-68
2022/01/17 02:33:34;;;;;;;51.33;25.65;;;;;;;-1.15;100.00;101789.78;4896313;29;20056;-68
2022/01/17 02:36:03;;;;;;;49.78;24.85;;;;;;;-1.23;100.00;101794.19;4898052;29;20059;-68
2022/01/17 02:38:31;;;;;;;47.50;23.92;;;;;;;-1.14;100.00;101792.31;4899747;29;20064;-68
2022/01/17 02:40:59;;;;;;;43.78;24.55;;;;;;;-1.02;100.00;101789.28;4899532;29;20088;-68
2022/01/17 02:43:27;;;;;;;54.83;24.80;;;;;;;-1.02;100.00;101789.28;4899429;29;20389;-68
2022/01/17 02:48:24;;;;;;;53.95;24.85;;;;;;;-1.05;100.00;101789.59;4899923;29;20053;-68
2022/01/17 02:50:53;;;;;;;58.83;25.27;;;;;;;-1.20;100.00;101782.25;4899279;29;20049;-68
2022/01/17 02:53:21;;;;;;;53.83;24.58;;;;;;;-1.27;100.00;101786.66;4899867;29;20392;-68
2022/01/17 02:55:51;;;;;;;54.08;24.88;;;;;;;-1.14;100.00;101792.31;4899954;29;20053;-68
2022/01/17 02:58:20;;;;;;;49.25;24.00;;;;;;;-1.05;100.00;101797.66;4899778;29;20381;-68
2022/01/17 03:00:51;;;;;;;49.08;24.35;;;;;;;-1.15;100.00;101811.28;4899530;29;20535;-68
2022/01/17 03:03:25;;;;;;;54.88;23.90;;;;;;;-1.27;100.00;101813.50;4899756;29;20048;-68
2022/01/17 03:05:55;;;;;;;47.35;23.35;;;;;;;-1.33;100.00;101814.19;4899536;29;20037;-68
2022/01/17 03:08:26;;;;;;;48.90;23.23;;;;;;;-1.37;100.00;101809.16;4899513;29;20055;-68
2022/01/17 03:10:55;;;;;;;49.40;23.63;;;;;;;-1.24;100.00;101802.41;4899406;29;20037;-68
2022/01/17 03:13:31;;;;;;;47.15;21.98;;;;;;;-1.20;100.00;101798.38;4898996;29;20056;-68
2022/01/17 03:16:04;;;;;;;54.88;24.13;;;;;;;-1.22;100.00;101811.16;4899427;29;20059;-68
2022/01/17 03:18:36;;;;;;;50.15;24.48;;;;;;;-1.13;100.00;101815.47;4899336;29;20053;-68
2022/01/17 03:21:07;;;;;;;55.97;22.40;;;;;;;-0.99;100.00;101813.09;4899291;29;20064;-68
2022/01/17 03:23:36;;;;;;;46.20;23.92;;;;;;;-1.01;100.00;101807.06;4899256;29;20053;-68
2022/01/17 03:26:05;;;;;;;45.10;22.17;;;;;;;-1.19;100.00;101800.06;4899134;29;20051;-68
2022/01/17 03:28:36;;;;;;;51.28;23.67;;;;;;;-1.15;100.00;101787.97;4897699;29;20049;-68
2022/01/17 03:31:06;;;;;;;47.45;22.52;;;;;;;-1.07;100.00;101784.41;4886635;29;20060;-68
2022/01/17 03:33:35;;;;;;;47.10;21.95;;;;;;;-1.19;100.00;101783.94;4898962;29;20064;-69
2022/01/17 03:36:04;;;;;;;46.75;23.02;;;;;;;-1.22;100.00;101784.28;4898839;29;20040;-68
2022/01/17 03:38:33;;;;;;;44.58;22.42;;;;;;;-0.98;100.00;101790.59;4899035;29;20053;-68
2022/01/17 03:41:04;;;;;;;46.97;22.70;;;;;;;-0.91;100.00;101786.22;4898417;29;20126;-68
2022/01/17 03:43:32;;;;;;;47.47;23.02;;;;;;;-1.08;100.00;101786.25;4898700;29;20056;-68
2022/01/17 03:46:00;;;;;;;42.67;23.40;;;;;;;-1.19;100.00;101788.47;4898353;29;20522;-68
2022/01/17 03:48:30;;;;;;;44.10;21.25;;;;;;;-1.24;100.00;101805.09;4897764;29;20049;-68
2022/01/17 03:50:58;;;;;;;47.60;22.88;;;;;;;-0.98;100.00;101809.41;4898424;29;20056;-68
2022/01/17 03:53:27;;;;;;;46.00;21.90;;;;;;;-1.05;100.00;101817.31;4898696;29;20596;-68
2022/01/17 03:55:56;;;;;;;41.63;20.92;;;;;;;-1.00;100.00;101811.41;4898712;29;20518;-68
2022/01/17 03:58:26;;;;;;;46.70;21.55;;;;;;;-1.07;100.00;101808.59;4899127;29;20052;-68
2022/01/17 04:00:55;;;;;;;44.00;20.40;;;;;;;-1.23;100.00;101814.81;4898144;29;20055;-68
2022/01/17 04:03:24;;;;;;;41.70;20.33;;;;;;;-1.34;100.00;101816.03;4898185;29;20049;-68
2022/01/17 04:05:53;;;;;;;55.05;23.33;;;;;;;-1.41;100.00;101826.59;4898324;29;20082;-69
2022/01/17 04:08:21;;;;;;;49.85;22.08;;;;;;;-1.43;100.00;101819.75;4898218;29;20040;-68
2022/01/17 04:10:49;;;;;;;48.15;22.08;;;;;;;-1.33;100.00;101824.94;4898183;29;20061;-68
2022/01/17 04:13:17;;;;;;;46.05;20.75;;;;;;;-1.17;100.00;101821.38;4897617;29;20044;-69
2022/01/17 04:15:45;;;;;;;48.60;21.50;;;;;;;-1.24;100.00;101810.47;4898476;29;20060;-68
2022/01/17 04:18:14;;;;;;;40.13;19.50;;;;;;;-1.37;100.00;101803.78;4898475;29;20385;-68
2022/01/17 04:20:43;;;;;;;44.05;20.27;;;;;;;-1.37;100.00;101817.19;4897917;29;20044;-68
2022/01/17 04:23:12;;;;;;;42.55;20.33;;;;;;;-1.39;100.00;101821.06;4897401;29;20063;-68
2022/01/17 04:25:42;;;;;;;51.30;20.83;;;;;;;-1.36;100.00;101832.31;4898375;29;20052;-68
2022/01/17 04:28:12;;;;;;;47.30;21.17;;;;;;;-1.38;100.00;101834.31;4897814;29;20555;-68
2022/01/17 04:30:42;;;;;;;32.65;15.88;;;;;;;-1.37;100.00;101841.38;4898096;29;20048;-68
2022/01/17 04:33:11;;;;;;;43.50;19.05;;;;;;;-1.38;100.00;101833.47;4898542;29;20071;-68
2022/01/17 04:35:40;;;;;;;39.65;18.73;;;;;;;-1.00;100.00;101841.84;4897772;29;20067;-68
2022/01/17 04:38:15;;;;;;;36.58;17.00;;;;;;;-1.03;100.00;101817.97;4897737;29;20049;-68
2022/01/17 04:40:47;;;;;;;39.38;16.67;;;;;;;-0.95;100.00;101814.44;4897526;29;20420;-68
2022/01/17 04:43:32;;;;;;;36.20;18.27;;;;;;;-0.79;100.00;101815.41;4897350;29;20056;-68
2022/01/17 04:46:00;;;;;;;37.05;16.35;;;;;;;-0.90;100.00;101825.50;4899267;29;20048;-68
2022/01/17 04:48:28;;;;;;;39.78;17.30;;;;;;;-1.05;100.00;101827.22;4896356;29;20104;-68
2022/01/17 04:50:58;;;;;;;38.08;17.45;;;;;;;-1.20;100.00;101830.63;4897520;29;20403;-68
2022/01/17 04:53:28;;;;;;;36.50;18.08;;;;;;;-1.09;100.00;101822.19;4897610;29;20059;-68
2022/01/17 04:55:57;;;;;;;38.88;17.70;;;;;;;-0.95;100.00;101815.28;4897470;29;20049;-68
2022/01/17 04:58:25;;;;;;;36.40;17.27;;;;;;;-0.85;100.00;101816.91;4884995;29;20049;-68
2022/01/17 05:00:53;;;;;;;36.60;17.92;;;;;;;-0.92;100.00;101811.41;4897017;29;20048;-68
2022/01/17 05:03:24;;;;;;;32.63;16.38;;;;;;;-1.11;100.00;101815.31;4910420;29;20068;-68
2022/01/17 05:05:54;;;;;;;30.98;17.08;;;;;;;-1.21;100.00;101815.50;4896643;29;20048;-68
2022/01/17 05:08:22;;;;;;;37.95;17.02;;;;;;;-1.32;100.00;101819.38;4896928;29;20047;-68
2022/01/17 05:10:53;;;;;;;37.35;16.65;;;;;;;-1.24;100.00;101842.69;4897335;29;20052;-68
2022/01/17 05:13:30;;;;;;;39.08;16.35;;;;;;;-0.89;100.00;101848.69;4897149;29;20248;-68
2022/01/17 05:16:12;;;;;;;36.38;17.15;;;;;;;-0.86;100.00;101847.50;4895729;29;20065;-68
2022/01/17 05:21:08;;;;;;;36.58;16.15;;;;;;;-0.78;100.00;101828.66;4896381;29;20060;-68
2022/01/17 05:23:36;;;;;;;33.83;16.05;;;;;;;-0.92;100.00;101827.53;4895692;29;20040;-68
2022/01/17 05:26:04;;;;;;;32.90;15.73;;;;;;;-1.03;100.00;101820.66;4895675;29;20400;-68
2022/01/17 05:28:32;;;;;;;33.50;16.73;;;;;;;-1.08;100.00;101823.88;4896697;29;20056;-68
2022/01/17 05:31:00;;;;;;;36.30;16.75;;;;;;;-1.03;100.00;101827.91;4895987;29;20057;-68
2022/01/17 05:33:30;;;;;;;36.30;17.48;;;;;;;-0.95;100.00;101822.50;4896448;29;20519;-68
2022/01/17 05:35:58;;;;;;;31.83;15.88;;;;;;;-0.79;100.00;101826.16;4887833;29;20060;-68
2022/01/17 05:38:26;;;;;;;37.55;15.82;;;;;;;-0.52;100.00;101826.72;4896772;29;20515;-68
2022/01/17 05:40:54;;;;;;;35.72;16.33;;;;;;;-0.55;100.00;101822.53;4896506;29;20052;-68
2022/01/17 05:43:21;;;;;;;31.95;15.50;;;;;;;-0.56;100.00;101832.47;4896445;29;20694;-68
2022/01/17 05:45:49;;;;;;;30.27;14.98;;;;;;;-0.70;100.00;101831.31;4896636;29;20060;-68
2022/01/17 05:48:17;;;;;;;29.00;14.00;;;;;;;-0.88;100.00;101839.59;4895128;29;20060;-67
2022/01/17 05:50:45;;;;;;;31.00;14.13;;;;;;;-1.03;100.00;101835.97;4896740;29;20049;-68
2022/01/17 05:53:14;;;;;;;30.02;14.82;;;;;;;-1.17;100.00;101835.63;4896130;29;20059;-68
2022/01/17 05:55:42;;;;;;;30.35;16.17;;;;;;;-1.29;100.00;101839.69;4896025;29;20056;-68
2022/01/17 05:58:11;;;;;;;30.33;14.43;;;;;;;-1.33;100.00;101852.63;4895689;29;20055;-68
2022/01/17 06:00:39;;;;;;;27.98;14.10;;;;;;;-1.43;100.00;101852.78;4894966;29;20067;-68
2022/01/17 06:03:07;;;;;;;28.70;15.48;;;;;;;-1.54;100.00;101834.31;4895654;29;20041;-69
2022/01/17 06:05:35;;;;;;;29.95;14.55;;;;;;;-1.53;100.00;101838.69;4896360;29;20052;-69
2022/01/17 06:08:03;;;;;;;31.00;13.98;;;;;;;-1.48;100.00;101847.09;4895750;29;20064;-68
2022/01/17 06:10:31;;;;;;;36.72;16.77;;;;;;;-1.54;100.00;101845.06;4895272;29;20492;-68
2022/01/17 06:12:59;;;;;;;34.10;14.35;;;;;;;-1.46;100.00;101855.81;4899626;29;20056;-68
2022/01/17 06:15:29;;;;;;;28.63;15.20;;;;;;;-1.11;100.00;101856.44;4898508;29;20132;-69
2022/01/17 06:17:59;;;;;;;30.35;15.75;;;;;;;-0.85;100.00;101860.78;4896855;29;20415;-69
2022/01/17 06:20:27;;;;;;;34.08;16.27;;;;;;;-0.80;100.00;101848.69;4898048;29;20063;-70
2022/01/17 06:22:55;;;;;;;29.35;15.20;;;;;;;-0.83;100.00;101861.44;4897782;29;20186;-70
2022/01/17 06:25:23;;;;;;;35.08;15.35;;;;;;;-0.98;100.00;101868.53;4898535;29;20541;-69
2022/01/17 06:27:51;;;;;;;36.78;17.95;;;;;;;-0.93;100.00;101874.22;4898443;29;20047;-67
2022/01/17 06:30:19;;;;;;;36.00;16.92;;;;;;;-0.96;100.00;101863.81;4899701;29;20048;-68
2022/01/17 06:32:47;;;;;;;31.85;15.90;;;;;;;-0.68;100.00;101863.44;4899814;29;20518;-79
2022/01/17 06:35:15;;;;;;;32.10;16.55;;;;;;;-0.32;100.00;101865.63;4883210;29;20049;-79
2022/01/17 06:37:45;;;;;;;35.03;15.52;;;;;;;-0.15;100.00;101850.22;4883043;29;20055;-80
2022/01/17 06:40:13;;;;;;;34.92;16.10;;;;;;;-0.02;99.91;101849.66;4898020;29;20045;-87
2022/01/17 06:42:42;;;;;;;41.22;18.00;;;;;;;0.12;99.13;101845.38;4893224;29;20063;-87
2022/01/17 06:45:11;;;;;;;35.78;16.17;;;;;;;0.22;99.16;101828.97;4882223;29;20060;-69
2022/01/17 06:47:40;;;;;;;31.35;15.90;;;;;;;-0.08;99.42;101818.09;4899577;29;20496;-69
2022/01/17 06:50:08;;;;;;;40.00;16.23;;;;;;;-0.35;100.00;101814.88;4899379;29;20053;-69
2022/01/17 06:52:37;;;;;;;31.08;16.23;;;;;;;-0.21;100.00;101833.94;4899724;29;20061;-69
2022/01/17 06:55:09;;;;;;;30.27;15.20;;;;;;;-0.19;100.00;101853.47;4899337;29;20391;-69
2022/01/17 06:57:40;;;;;;;34.30;16.42;;;;;;;-0.35;100.00;101865.16;4899020;29;20051;-69
2022/01/17 07:00:10;;;;;;;33.75;16.08;;;;;;;-0.37;100.00;101872.53;4898596;29;20064;-69
2022/01/17 07:02:38;;;;;;;39.00;17.30;;;;;;;-0.56;100.00;101872.78;4899368;29;20412;-69
2022/01/17 07:05:07;;;;;;;34.72;15.93;;;;;;;-0.72;100.00;101880.91;4898879;29;20060;-69
2022/01/17 07:07:35;;;;;;;35.30;15.88;;;;;;;-0.78;100.00;101892.34;4899279;29;20049;-69
2022/01/17 07:10:04;;;;;;;40.47;16.73;;;;;;;-0.87;100.00;101892.34;4898982;29;20068;-69
2022/01/17 07:12:36;;;;;;;36.50;16.75;;;;;;;-0.87;100.00;101880.78;4897888;29;20067;-69
2022/01/17 07:15:05;;;;;;;38.33;16.38;;;;;;;-0.85;100.00;101884.97;4898465;29;20071;-69
2022/01/17 07:17:34;;;;;;;37.10;17.00;;;;;;;-0.55;100.00;101882.53;4898919;29;20496;-69
2022/01/17 07:20:03;;;;;;;37.47;16.67;;;;;;;-0.36;100.00;101880.44;4898621;29;20369;-69
2022/01/17 07:22:32;;;;;;;35.95;16.35;;;;;;;-0.44;100.00;101877.78;4897917;29;20056;-69
2022/01/17 07:25:00;;;;;;;36.83;16.60;;;;;;;-0.41;100.00;101885.50;4898695;29;20049;-69
2022/01/17 07:27:35;;;;;;;31.90;15.68;;;;;;;-0.39;100.00;101886.16;4898736;29;20056;-69
2022/01/17 07:30:05;;;;;;;36.60;15.40;;;;;;;-0.29;100.00;101876.03;4898432;29;20079;-69
2022/01/17 07:32:35;;;;;;;38.15;16.52;;;;;;;-0.21;100.00;101891.31;4898314;29;20064;-69
2022/01/17 07:35:05;;;;;;;33.58;16.85;;;;;;;-0.04;100.00;101904.69;4898994;29;20057;-69
2022/01/17 07:37:33;;;;;;;33.83;17.05;;;;;;;0.13;100.00;101922.44;4885976;29;20064;-70
2022/01/17 07:40:04;;;;;;;39.17;16.23;;;;;;;0.24;99.94;101914.94;4898443;29;20044;-69
2022/01/17 07:42:33;;;;;;;35.33;17.08;;;;;;;0.22;98.59;101917.84;4885121;29;20399;-69
2022/01/17 07:45:09;;;;;;;40.08;18.20;;;;;;;0.43;97.98;101932.50;4898694;29;20056;-69
2022/01/17 07:48:11;;;;;;;33.60;18.30;;;;;;;0.49;96.57;101944.44;4898291;29;20060;-69
2022/01/17 07:50:34;;;;;;;45.30;20.67;;;;;;;0.50;94.81;101971.16;4898273;29;20531;-69
2022/01/17 07:53:02;;;;;;;45.75;21.15;;;;;;;0.47;94.89;101954.53;4898298;29;20053;-69
2022/01/17 07:55:30;;;;;;;47.72;23.50;;;;;;;0.62;94.44;101946.50;4898363;29;20048;-69
2022/01/17 07:57:58;;;;;;;53.00;25.67;;;;;;;0.77;93.04;101930.41;4898285;29;20452;-69
2022/01/17 08:00:25;;;;;;;65.05;29.33;;;;;;;0.94;92.73;101923.03;4897946;29;20048;-69
2022/01/17 08:02:56;;;;;;;65.40;29.10;;;;;;;1.24;91.64;101924.94;4898402;29;20044;-69
2022/01/17 08:05:24;;;;;;;86.53;37.65;;;;;;;1.55;90.41;101937.41;4897935;29;20415;-69
2022/01/17 08:07:53;;;;;;;112.53;44.97;;;;;;;1.79;88.52;101944.41;4897800;29;20048;-69
2022/01/17 08:10:21;;;;;;;104.82;44.65;;;;;;;1.98;89.25;101939.44;4898009;29;20054;-69
2022/01/17 08:12:49;;;;;;;87.43;40.63;;;;;;;2.27;87.82;101929.59;4897919;29;20048;-69
2022/01/17 08:15:17;;;;;;;59.05;29.33;;;;;;;2.31;85.38;101928.22;4898248;29;20045;-69
2022/01/17 08:17:46;;;;;;;58.80;29.42;;;;;;;2.36;84.62;101914.13;4897779;29;20049;-69
2022/01/17 08:20:16;;;;;;;59.35;27.13;;;;;;;2.51;84.10;101908.66;4897417;29;20044;-69
2022/01/17 08:22:45;;;;;;;52.78;24.48;;;;;;;2.44;83.70;101905.88;4897968;29;20048;-69
2022/01/17 08:25:14;;;;;;;46.63;21.13;;;;;;;2.47;83.73;101907.34;4897973;29;20056;-69
2022/01/17 08:27:42;;;;;;;51.83;22.90;;;;;;;2.62;84.08;101902.72;4897815;29;20507;-69
2022/01/17 08:30:11;;;;;;;45.10;20.98;;;;;;;2.85;81.77;101912.50;4897737;29;20053;-69
2022/01/17 08:33:00;;;;;;;45.28;22.00;;;;;;;3.14;80.55;101918.75;4896872;29;20053;-69
2022/01/17 08:35:28;;;;;;;43.45;19.95;;;;;;;3.48;79.51;101917.09;4897509;29;20048;-69
2022/01/17 08:37:56;;;;;;;38.55;19.38;;;;;;;3.82;78.43;101914.56;4897618;29;20048;-69
2022/01/17 08:40:24;;;;;;;46.55;20.50;;;;;;;4.24;76.25;101909.09;4896957;29;20080;-69
2022/01/17 08:42:53;;;;;;;40.33;19.23;;;;;;;4.19;76.27;101914.28;4896959;29;20130;-69
2022/01/17 08:45:23;;;;;;;47.25;19.48;;;;;;;3.73;78.45;101908.47;4897024;29;20059;-69
2022/01/17 08:48:09;;;;;;;39.20;18.00;;;;;;;4.14;76.08;101886.97;4897233;29;20056;-69
2022/01/17 08:50:37;;;;;;;37.28;17.92;;;;;;;4.17;76.69;101881.16;4897129;29;20400;-69
2022/01/17 08:53:05;;;;;;;40.47;18.35;;;;;;;4.37;76.89;101885.75;4896941;29;20047;-69
2022/01/17 08:55:33;;;;;;;35.60;18.90;;;;;;;4.86;75.53;101897.28;4896944;29;20056;-69
2022/01/17 08:58:02;;;;;;;41.47;20.38;;;;;;;4.96;73.00;101910.41;4896876;29;20399;-69
2022/01/17 09:00:33;;;;;;;39.65;19.83;;;;;;;5.13;73.16;101899.97;4896946;29;20063;-69
2022/01/17 09:03:19;;;;;;;36.15;17.17;;;;;;;5.57;72.94;101903.00;4896230;29;20053;-69
2022/01/17 09:05:48;;;;;;;32.30;15.60;;;;;;;6.06;70.45;101908.06;4895682;29;20055;-69
2022/01/17 09:08:18;;;;;;;28.73;16.02;;;;;;;6.21;69.32;101893.38;4896270;29;20052;-69
2022/01/17 09:10:47;;;;;;;31.20;16.55;;;;;;;6.21;69.63;101894.19;4896751;29;20064;-69
2022/01/17 09:13:15;;;;;;;36.45;18.15;;;;;;;6.28;69.51;101891.44;4896929;29;20052;-69
2022/01/17 09:15:43;;;;;;;28.98;16.00;;;;;;;6.06;71.64;101910.78;4897093;29;20045;-69
2022/01/17 09:18:14;;;;;;;39.13;17.90;;;;;;;5.91;72.72;101935.47;4897095;29;20059;-69
2022/01/17 09:20:42;;;;;;;34.38;17.48;;;;;;;5.79;73.60;101954.34;4896803;29;20045;-69
2022/01/17 09:23:11;;;;;;;32.83;17.65;;;;;;;5.76;72.53;101950.19;4897145;29;20049;-69
2022/01/17 09:25:39;;;;;;;37.92;17.70;;;;;;;5.82;73.54;101977.53;4896896;29;20064;-69
2022/01/17 09:28:08;;;;;;;35.17;17.15;;;;;;;5.76;73.80;101990.06;4897027;29;20064;-69
2022/01/17 09:30:35;;;;;;;39.08;19.88;;;;;;;6.09;72.81;101978.31;4896790;29;20052;-69
2022/01/17 09:33:05;;;;;;;33.50;18.33;;;;;;;6.39;71.85;101994.06;4896609;29;20052;-69
2022/01/17 09:35:35;;;;;;;34.85;19.75;;;;;;;6.55;71.81;101975.59;4896423;29;20053;-69
2022/01/17 09:38:04;;;;;;;36.20;18.85;;;;;;;6.54;70.16;101963.03;4896807;29;20049;-69
2022/01/17 09:40:33;;;;;;;37.90;19.88;;;;;;;6.81;70.37;101950.09;4893909;29;20044;-69
2022/01/17 09:43:21;;;;;;;36.35;19.65;;;;;;;7.32;70.00;101941.06;4896173;29;20059;-69
2022/01/17 09:45:49;;;;;;;39.20;20.80;;;;;;;7.45;70.16;101929.22;4898246;29;20052;-69
2022/01/17 09:48:20;;;;;;;46.45;21.85;;;;;;;7.42;69.20;101935.13;4900846;29;20126;-69
2022/01/17 09:51:04;;;;;;;38.45;21.45;;;;;;;7.39;70.17;101911.91;4900421;29;20539;-69
2022/01/17 09:53:38;;;;;;;39.50;23.15;;;;;;;7.32;69.64;101903.78;4900708;29;20053;-69
2022/01/17 09:56:07;;;;;;;;;;;;;;;7.68;69.91;101933.16;4900743;29;20056;-69
2022/01/17 09:58:37;;;;;;;48.92;29.02;;;;;;;7.79;70.04;101913.34;4900397;29;19924;-70
2022/01/17 10:01:06;;;;;;;50.95;30.23;;;;;;;8.06;67.76;101904.81;4900046;29;20416;-69
2022/01/17 10:03:39;;;;;;;50.75;29.60;;;;;;;7.80;69.88;101901.38;4900386;29;20044;-69
2022/01/17 10:06:07;;;;;;;53.00;33.00;;;;;;;7.85;71.36;101881.59;4900462;29;20052;-69
2022/01/17 10:08:35;;;;;;;49.33;29.80;;;;;;;7.99;69.74;101885.84;4900605;29;20053;-69
2022/01/17 10:11:14;;;;;;;50.88;29.95;;;;;;;8.04;70.65;101893.31;4900130;29;20048;-69
2022/01/17 10:13:45;;;;;;;52.92;29.58;;;;;;;8.66;69.35;101884.03;4900401;29;20075;-69
2022/01/17 10:16:19;;;;;;;50.28;29.30;;;;;;;8.67;68.31;101868.50;4900199;29;20053;-69
2022/01/17 10:19:01;;;;;;;50.95;30.00;;;;;;;8.90;68.07;101864.13;4900511;29;20053;-69
2022/01/17 10:21:41;;;;;;;52.40;29.17;;;;;;;9.26;66.43;101878.59;4900048;29;20059;-69
2022/01/17 10:24:21;;;;;;;47.22;28.50;;;;;;;9.11;65.70;101873.63;4900018;29;20063;-69
2022/01/17 10:27:10;;;;;;;45.58;28.48;;;;;;;9.68;65.09;101875.66;4899708;29;20059;-69
2022/01/17 10:35:22;;;;;;;46.63;25.80;;;;;;;10.45;59.06;101899.28;4899430;29;20059;-70
2022/01/17 10:38:01;;;;;;;44.25;24.77;;;;;;;10.20;59.51;101895.81;4899758;29;20507;-70
2022/01/17 10:40:40;;;;;;;37.75;22.58;;;;;;;10.19;58.53;101893.31;4899103;29;20068;-69
2022/01/17 10:43:21;;;;;;;39.78;24.00;;;;;;;9.99;60.80;101882.81;4899605;29;20519;-69
2022/01/17 10:45:49;;;;;;;41.67;22.17;;;;;;;9.85;61.66;101872.19;4899372;29;20056;-70
2022/01/17 10:48:17;;;;;;;44.08;23.30;;;;;;;9.65;61.81;101878.91;4899018;29;20048;-70
2022/01/17 10:50:50;;;;;;;43.58;22.90;;;;;;;9.34;62.13;101867.31;4899477;29;20045;-70
2022/01/17 10:53:18;;;;;;;42.25;23.73;;;;;;;9.35;63.05;101870.88;4897646;29;20504;-69
2022/01/17 10:55:53;;;;;;;41.33;23.13;;;;;;;9.44;62.46;101857.69;4896913;29;20052;-68
2022/01/17 10:58:31;;;;;;;50.17;27.88;;;;;;;9.58;62.11;101850.84;4898240;29;20480;-68
2022/01/17 11:01:02;;;;;;;49.53;27.33;;;;;;;9.60;62.32;101850.63;4898620;29;20057;-69
2022/01/17 11:03:33;;;;;;;43.88;22.90;;;;;;;9.66;61.85;101858.69;4897574;29;20049;-68
2022/01/17 11:06:05;;;;;;;41.67;21.95;;;;;;;9.77;60.47;101862.44;4898503;29;20060;-68
2022/01/17 11:08:34;;;;;;;37.00;21.48;;;;;;;9.73;61.00;101871.38;4898625;29;20499;-68
2022/01/17 11:11:07;;;;;;;33.03;20.00;;;;;;;9.65;61.44;101859.78;4899080;29;20060;-68
2022/01/17 11:13:38;;;;;;;33.90;21.38;;;;;;;9.71;61.50;101854.38;4898796;29;20052;-69
2022/01/17 11:16:11;;;;;;;36.40;21.77;;;;;;;9.97;61.07;101861.19;4898169;29;20060;-69
2022/01/17 11:18:44;;;;;;;36.42;20.20;;;;;;;9.98;60.74;101859.28;4893130;29;20049;-69
2022/01/17 11:21:14;;;;;;;34.65;20.23;;;;;;;9.61;61.76;101861.31;4898688;29;20482;-69
2022/01/17 11:23:47;;;;;;;33.28;21.23;;;;;;;9.64;63.60;101857.28;4897632;29;20049;-69
2022/01/17 11:26:17;;;;;;;31.83;19.15;;;;;;;9.46;63.85;101839.97;4897552;29;20530;-69
2022/01/17 11:28:47;;;;;;;36.95;21.23;;;;;;;9.74;63.27;101848.44;4896471;29;20048;-69
2022/01/17 11:31:16;;;;;;;38.15;19.85;;;;;;;10.13;63.22;101840.44;4898195;29;20063;-69
2022/01/17 11:33:46;;;;;;;38.95;21.40;;;;;;;9.89;63.28;101826.88;4897539;29;20059;-69
2022/01/17 11:36:17;;;;;;;35.80;22.48;;;;;;;9.97;64.02;101801.03;4897725;29;20057;-69
2022/01/17 11:38:52;;;;;;;36.88;22.70;;;;;;;10.41;61.78;101788.66;4895154;29;20041;-69
2022/01/17 11:41:24;;;;;;;41.75;25.05;;;;;;;10.01;63.90;101793.16;4895727;29;20415;-69